Decoded Metar for LFRD (DINARD in FRANCE) (IATA:DNR) | Meteo·Mobile Aviation Weather
aviador You're here:

LFRD Decoded Metar

DINARD in FRANCE
Report Time2018-08-22 05:30:00
UTC Time2018-08-22 05:36:10
Flight Rules ifr IFR
Wind320° at 05 kt
W.Decomp.*RWY 30: 4.6 kt HW 1.9 kt RCW
RWY 35: 4.4 kt HW 2.3 kt LCW
W.Rank320° ranks 12
Current wind is below 320° avg. (10.1)
Visibility9999 m
Phenomena:N/A
Clouds:Overcast 009 Hf
Expected CloudBase > 400 ft AGL from Temp-Dew spread
Ceiling900 ft
Temp17°C (ISA +2)
Dew Point16°C (94% RH)
QNH1019 hPa
Density Alt515 ft
Elevation194 ft
Report Wrong Elevation
Raw Report
METAR LFRD 220530Z AUTO 32005KT 9999 OVC009 17/16 Q1019 NOSIG=

Extra information for LFRD:More info

Metar Taf Metar & Taf Last 4 Metars F.Rules Stats Wind Profile Meteogram Temp Stats Airport Information Weather charts Add Link Nearby VenuesMetar ALERT Operation Metar Decoded Social comments